createdAt,value
2023-07-23T00:01:02.655Z,3.20
2023-07-23T00:03:30.636Z,3.50
2023-07-23T00:06:00.079Z,2.90
2023-07-23T00:08:28.014Z,3.20
2023-07-23T00:10:58.326Z,3.53
2023-07-23T00:13:27.066Z,3.30
2023-07-23T00:15:55.159Z,3.23
2023-07-23T00:18:23.202Z,3.67
2023-07-23T00:20:51.294Z,3.30
2023-07-23T00:23:20.641Z,3.27
2023-07-23T00:25:48.563Z,3.43
2023-07-23T00:28:16.524Z,3.30
2023-07-23T00:30:44.447Z,3.60
2023-07-23T00:33:12.840Z,2.80
2023-07-23T00:35:40.862Z,3.50
2023-07-23T00:38:08.779Z,3.53
2023-07-23T00:40:38.119Z,3.83
2023-07-23T00:43:05.977Z,3.43
2023-07-23T00:45:34.078Z,3.37
2023-07-23T00:48:02.132Z,3.53
2023-07-23T00:50:30.720Z,3.10
2023-07-23T00:52:58.742Z,2.97
2023-07-23T00:55:26.812Z,3.57
2023-07-23T00:57:56.139Z,3.87
2023-07-23T01:00:24.144Z,3.97
2023-07-23T01:02:52.212Z,3.63
2023-07-23T01:05:20.324Z,3.10
2023-07-23T01:07:49.245Z,3.30
2023-07-23T01:10:17.930Z,3.90
2023-07-23T01:12:45.961Z,3.90
2023-07-23T01:15:15.320Z,4.30
2023-07-23T01:17:43.832Z,3.30
2023-07-23T01:20:12.253Z,3.53
2023-07-23T01:22:41.503Z,3.77
2023-07-23T01:25:10.109Z,3.60
2023-07-23T01:27:38.257Z,3.50
2023-07-23T01:30:09.280Z,3.80
2023-07-23T01:32:38.160Z,3.50
2023-07-23T01:35:10.402Z,3.60
2023-07-23T01:37:38.661Z,4.10
2023-07-23T01:40:09.238Z,3.63
2023-07-23T01:42:37.601Z,3.90
2023-07-23T01:45:06.534Z,4.10
2023-07-23T01:47:34.569Z,4.07
2023-07-23T01:50:02.620Z,4.10
2023-07-23T01:52:31.780Z,3.07
2023-07-23T01:54:59.658Z,3.80
2023-07-23T01:57:28.934Z,3.27
2023-07-23T01:59:56.816Z,3.93
2023-07-23T02:02:24.830Z,3.80
2023-07-23T02:04:53.027Z,3.50
2023-07-23T02:07:20.946Z,3.40
2023-07-23T02:09:51.289Z,3.67
2023-07-23T02:12:19.836Z,3.53
2023-07-23T02:14:49.629Z,4.10
2023-07-23T02:17:17.502Z,3.30
2023-07-23T02:19:45.536Z,4.40
2023-07-23T02:22:13.466Z,3.37
2023-07-23T02:24:41.414Z,3.70
2023-07-23T02:27:09.291Z,3.70
2023-07-23T02:29:37.308Z,3.60
2023-07-23T02:32:08.500Z,3.67
2023-07-23T02:34:36.380Z,3.60
2023-07-23T02:37:04.577Z,3.80
2023-07-23T02:39:32.875Z,4.27
2023-07-23T02:42:00.932Z,4.03
2023-07-23T02:44:28.834Z,3.30
2023-07-23T02:46:56.742Z,3.50
2023-07-23T02:49:26.362Z,4.20
2023-07-23T02:51:54.272Z,3.70
2023-07-23T02:54:22.197Z,3.60
2023-07-23T02:56:50.100Z,3.47
2023-07-23T02:59:17.961Z,3.90
2023-07-23T03:01:45.944Z,4.03
2023-07-23T03:04:14.978Z,3.50
2023-07-23T03:06:44.293Z,3.43
2023-07-23T03:09:12.283Z,3.67
2023-07-23T03:11:41.032Z,3.70
2023-07-23T03:14:10.089Z,3.87
2023-07-23T03:16:39.180Z,3.60
2023-07-23T03:19:07.119Z,3.90
2023-07-23T03:21:35.108Z,3.87
2023-07-23T03:24:04.663Z,3.80
2023-07-23T03:26:32.531Z,3.70
2023-07-23T03:29:00.445Z,3.90
2023-07-23T03:31:29.835Z,3.90
2023-07-23T03:34:00.949Z,3.70
2023-07-23T03:36:29.190Z,3.60
2023-07-23T03:38:57.118Z,3.90
2023-07-23T03:41:26.627Z,3.77
2023-07-23T03:43:54.920Z,3.43
2023-07-23T03:46:22.922Z,3.40
2023-07-23T03:48:50.928Z,3.67
2023-07-23T03:51:21.386Z,3.10
2023-07-23T03:53:49.337Z,3.57
2023-07-23T03:56:17.318Z,3.40
2023-07-23T03:58:46.640Z,3.77
2023-07-23T04:01:14.634Z,3.33
2023-07-23T04:03:43.155Z,3.33
2023-07-23T04:06:11.106Z,3.47
2023-07-23T04:08:39.050Z,3.30
2023-07-23T04:11:08.756Z,3.20
2023-07-23T04:13:36.686Z,3.03
2023-07-23T04:16:11.227Z,3.37
2023-07-23T04:18:49.497Z,3.30
2023-07-23T04:21:19.692Z,2.83
2023-07-23T04:23:48.620Z,3.30
2023-07-23T04:26:17.193Z,3.40
2023-07-23T04:28:45.331Z,3.00
2023-07-23T04:31:14.724Z,3.20
2023-07-23T04:33:42.861Z,3.60
2023-07-23T04:36:10.908Z,3.30
2023-07-23T04:38:38.960Z,3.53
2023-07-23T04:41:07.346Z,3.00
2023-07-23T04:43:36.415Z,3.23
2023-07-23T04:46:06.043Z,3.70
2023-07-23T04:48:35.512Z,3.57
2023-07-23T04:51:04.694Z,3.90
2023-07-23T04:53:32.727Z,3.07
2023-07-23T04:56:03.694Z,3.60
2023-07-23T04:58:32.286Z,3.27
2023-07-23T05:01:02.391Z,3.50
2023-07-23T05:03:30.427Z,3.60
2023-07-23T05:06:03.854Z,3.50
2023-07-23T05:08:32.075Z,3.23
2023-07-23T05:11:01.401Z,3.97
2023-07-23T05:13:29.872Z,3.60
2023-07-23T05:15:59.250Z,3.80
2023-07-23T05:18:27.259Z,3.20
2023-07-23T05:20:55.527Z,3.40
2023-07-23T05:23:25.201Z,3.90
2023-07-23T05:25:53.053Z,3.50
2023-07-23T05:28:20.925Z,3.27
2023-07-23T05:30:48.816Z,3.30
2023-07-23T05:33:16.735Z,3.27
2023-07-23T05:35:44.587Z,3.30
2023-07-23T05:38:12.478Z,3.70
2023-07-23T05:40:42.420Z,3.57
2023-07-23T05:43:17.868Z,3.60
2023-07-23T05:45:45.941Z,3.43
2023-07-23T05:48:13.844Z,3.43
2023-07-23T05:50:41.847Z,3.60
2023-07-23T05:53:09.704Z,3.23
2023-07-23T05:55:37.583Z,3.20
2023-07-23T05:58:08.733Z,4.07
2023-07-23T06:00:36.877Z,3.80
2023-07-23T06:03:07.900Z,3.50
2023-07-23T06:05:35.868Z,3.90
2023-07-23T06:08:04.142Z,3.60
2023-07-23T06:10:32.075Z,3.40
2023-07-23T06:12:59.994Z,3.80
2023-07-23T06:15:29.353Z,3.83
2023-07-23T06:17:58.381Z,3.63
2023-07-23T06:20:27.130Z,3.63
2023-07-23T06:22:56.061Z,3.00
2023-07-23T06:25:24.011Z,3.03
2023-07-23T06:27:51.926Z,3.20
2023-07-23T06:30:19.934Z,3.27
2023-07-23T06:32:49.185Z,3.30
2023-07-23T06:35:17.698Z,3.07
2023-07-23T06:37:45.575Z,3.80
2023-07-23T06:40:13.585Z,3.30
2023-07-23T06:42:41.514Z,3.63
2023-07-23T06:45:11.076Z,3.57
2023-07-23T06:47:39.510Z,3.70
2023-07-23T06:50:09.920Z,3.93
2023-07-23T06:52:37.843Z,3.47
2023-07-23T06:55:06.511Z,3.30
2023-07-23T06:57:34.389Z,3.00
2023-07-23T07:00:02.312Z,3.60
2023-07-23T07:02:30.249Z,3.13
2023-07-23T07:04:58.122Z,3.43
2023-07-23T07:07:27.527Z,2.93
2023-07-23T07:09:55.473Z,3.30
2023-07-23T07:12:23.479Z,2.27
2023-07-23T07:14:51.341Z,2.97
2023-07-23T07:17:19.276Z,2.80
2023-07-23T07:19:47.175Z,2.90
2023-07-23T07:22:15.052Z,2.40
2023-07-23T07:24:44.441Z,2.50
2023-07-23T07:27:12.412Z,2.97
2023-07-23T07:29:41.833Z,2.70
2023-07-23T07:32:10.118Z,2.47
2023-07-23T07:34:38.052Z,2.43
2023-07-23T07:37:06.682Z,2.60
2023-07-23T07:39:35.646Z,2.30
2023-07-23T07:42:05.391Z,2.37
2023-07-23T07:44:33.975Z,2.37
2023-07-23T07:47:05.291Z,2.00
2023-07-23T07:49:33.254Z,1.93
2023-07-23T07:52:01.503Z,2.50
2023-07-23T07:54:29.416Z,1.70
2023-07-23T07:56:57.864Z,1.60
2023-07-23T07:59:27.776Z,1.80
2023-07-23T08:01:56.318Z,1.60
2023-07-23T08:04:24.970Z,1.70
2023-07-23T08:06:53.036Z,1.57
2023-07-23T08:09:22.057Z,1.33
2023-07-23T08:11:50.468Z,1.40
2023-07-23T08:14:18.946Z,1.10
2023-07-23T08:16:51.106Z,1.60
2023-07-23T08:19:19.667Z,1.40
2023-07-23T08:21:48.347Z,1.53
2023-07-23T08:24:16.871Z,1.23
2023-07-23T08:26:46.236Z,1.20
2023-07-23T08:29:15.155Z,1.30
2023-07-23T08:31:43.388Z,1.00
2023-07-23T08:34:13.395Z,1.00
2023-07-23T08:36:44.852Z,1.20
2023-07-23T08:39:18.910Z,1.10
2023-07-23T08:42:07.760Z,1.27
2023-07-23T08:45:26.149Z,1.30
2023-07-23T08:48:03.076Z,1.23
2023-07-23T08:50:33.163Z,1.43
2023-07-23T08:53:01.788Z,1.47
2023-07-23T08:55:29.810Z,1.20
2023-07-23T08:57:57.943Z,1.23
2023-07-23T09:00:29.628Z,1.20
2023-07-23T09:03:00.386Z,1.00
2023-07-23T09:05:28.823Z,1.50
2023-07-23T09:07:58.103Z,1.27
2023-07-23T09:10:26.101Z,1.20
2023-07-23T09:12:54.097Z,1.40
2023-07-23T09:15:22.041Z,1.77
2023-07-23T09:17:51.007Z,1.70
2023-07-23T09:20:22.400Z,1.83
2023-07-23T09:22:50.639Z,1.20
2023-07-23T09:25:20.648Z,1.40
2023-07-23T09:27:48.575Z,1.40
2023-07-23T09:30:20.069Z,1.53
2023-07-23T09:32:57.931Z,1.60
2023-07-23T09:35:26.188Z,1.67
2023-07-23T09:37:58.436Z,1.60
2023-07-23T09:40:36.014Z,1.50
2023-07-23T09:43:04.325Z,1.10
2023-07-23T09:45:32.566Z,1.63
2023-07-23T09:48:14.070Z,1.40
2023-07-23T09:50:44.676Z,1.57
2023-07-23T09:53:12.753Z,1.20
2023-07-23T09:55:42.313Z,1.33
2023-07-23T09:58:11.614Z,1.37
2023-07-23T10:00:40.348Z,1.40
2023-07-23T10:03:09.233Z,1.70
2023-07-23T10:05:40.565Z,1.33
2023-07-23T10:08:08.514Z,1.50
2023-07-23T10:10:36.623Z,1.30
2023-07-23T10:13:06.013Z,1.30
2023-07-23T10:15:34.806Z,1.30
2023-07-23T10:18:03.453Z,1.33
2023-07-23T10:20:34.684Z,1.30
2023-07-23T10:23:05.697Z,1.37
2023-07-23T10:25:39.735Z,1.20
2023-07-23T10:28:12.077Z,1.30
2023-07-23T10:30:40.044Z,1.43
2023-07-23T10:33:30.142Z,1.60
2023-07-23T10:36:03.523Z,1.47
2023-07-23T10:38:32.930Z,1.30
2023-07-23T10:41:01.456Z,1.30
2023-07-23T10:43:40.946Z,1.80
2023-07-23T10:46:10.995Z,1.20
2023-07-23T10:48:43.802Z,1.40
2023-07-23T10:51:13.384Z,1.20
2023-07-23T10:53:42.919Z,1.50
2023-07-23T10:56:34.418Z,1.33
2023-07-23T10:59:06.849Z,1.40
2023-07-23T11:01:37.918Z,1.43
2023-07-23T11:04:10.664Z,1.50
2023-07-23T11:06:42.345Z,1.10
2023-07-23T11:09:11.982Z,1.37
2023-07-23T11:11:41.802Z,1.20
2023-07-23T11:14:21.785Z,1.07
2023-07-23T11:16:51.233Z,1.10
2023-07-23T11:19:20.467Z,1.10
2023-07-23T11:21:53.034Z,1.47
2023-07-23T11:24:21.964Z,1.40
2023-07-23T11:26:50.094Z,1.30
2023-07-23T11:29:18.541Z,1.33
2023-07-23T11:31:48.284Z,1.80
2023-07-23T11:34:16.319Z,1.30
2023-07-23T11:36:44.492Z,1.57
2023-07-23T11:39:12.865Z,1.33
2023-07-23T11:41:43.210Z,1.60
2023-07-23T11:44:12.201Z,1.53
2023-07-23T11:46:42.274Z,1.43
2023-07-23T11:49:14.421Z,1.43
2023-07-23T11:51:42.814Z,1.67
2023-07-23T11:54:12.405Z,1.60
2023-07-23T11:56:42.132Z,1.40
2023-07-23T11:59:11.380Z,1.20
2023-07-23T12:01:40.573Z,1.53
2023-07-23T12:04:09.839Z,1.80
2023-07-23T12:06:41.999Z,2.10
2023-07-23T12:09:11.121Z,1.60
2023-07-23T12:11:40.976Z,1.80
2023-07-23T12:14:09.441Z,1.90
2023-07-23T12:16:40.129Z,1.70
2023-07-23T12:19:10.375Z,1.70
2023-07-23T12:21:40.687Z,1.90
2023-07-23T12:24:19.687Z,1.63
2023-07-23T12:26:49.076Z,1.80
2023-07-23T12:29:17.849Z,1.60
2023-07-23T12:31:48.517Z,1.70
2023-07-23T12:34:17.436Z,1.80
2023-07-23T12:36:46.744Z,2.27
2023-07-23T12:39:14.702Z,1.97
2023-07-23T12:41:42.584Z,1.80
2023-07-23T12:44:11.133Z,2.00
2023-07-23T12:46:39.230Z,2.30
2023-07-23T12:49:07.141Z,1.77
2023-07-23T12:51:35.539Z,2.27
2023-07-23T12:54:04.937Z,2.50
2023-07-23T12:56:32.855Z,2.20
2023-07-23T12:59:00.893Z,2.20
2023-07-23T13:01:29.151Z,2.13
2023-07-23T13:03:57.178Z,2.17
2023-07-23T13:06:25.187Z,2.07
2023-07-23T13:08:53.350Z,2.50
2023-07-23T13:11:22.659Z,2.23
2023-07-23T13:13:50.617Z,2.10
2023-07-23T13:16:20.373Z,2.00
2023-07-23T13:18:48.617Z,1.80
2023-07-23T13:21:16.706Z,2.40
2023-07-23T13:23:44.857Z,2.53
2023-07-23T13:26:12.871Z,2.20
2023-07-23T13:28:42.196Z,2.53
2023-07-23T13:31:10.160Z,2.00
2023-07-23T13:33:38.130Z,2.40
2023-07-23T13:36:06.673Z,2.40
2023-07-23T13:38:36.404Z,2.30
2023-07-23T13:41:05.769Z,2.20
2023-07-23T13:43:33.906Z,2.30
2023-07-23T13:46:03.319Z,2.50
2023-07-23T13:48:31.323Z,2.40
2023-07-23T13:50:59.318Z,2.30
2023-07-23T13:53:27.274Z,2.10
2023-07-23T13:55:55.172Z,2.53
2023-07-23T13:58:23.151Z,2.20
2023-07-23T14:00:51.091Z,2.27
2023-07-23T14:03:20.442Z,2.27
2023-07-23T14:05:48.370Z,2.43
2023-07-23T14:08:16.231Z,2.10
2023-07-23T14:10:44.221Z,2.87
2023-07-23T14:13:12.137Z,2.83
2023-07-23T14:15:40.049Z,2.60
2023-07-23T14:18:08.928Z,2.10
2023-07-23T14:20:38.317Z,2.00
2023-07-23T14:23:06.262Z,1.97
2023-07-23T14:25:34.168Z,1.80
2023-07-23T14:28:02.560Z,2.20
2023-07-23T14:30:30.579Z,2.00
2023-07-23T14:32:59.041Z,2.10
2023-07-23T14:35:30.992Z,4.00
2023-07-23T14:38:00.314Z,2.70
2023-07-23T14:40:28.302Z,1.80
2023-07-23T14:42:56.246Z,2.10
2023-07-23T14:45:24.156Z,2.17
2023-07-23T14:47:52.427Z,2.00
2023-07-23T14:50:21.375Z,2.10
2023-07-23T14:52:49.346Z,2.30
2023-07-23T14:55:18.945Z,2.00
2023-07-23T14:57:46.845Z,2.23
2023-07-23T15:00:15.714Z,2.53
2023-07-23T15:02:43.777Z,2.30
2023-07-23T15:05:12.366Z,1.57
2023-07-23T15:07:40.373Z,2.40
2023-07-23T15:10:09.263Z,2.13
2023-07-23T15:12:39.172Z,1.90
2023-07-23T15:15:09.792Z,1.77
2023-07-23T15:17:38.513Z,1.60
2023-07-23T15:20:07.907Z,1.73
2023-07-23T15:22:36.471Z,2.20
2023-07-23T15:25:05.107Z,1.50
2023-07-23T15:27:34.111Z,1.70
2023-07-23T15:30:03.403Z,2.03
2023-07-23T15:32:31.337Z,2.00
2023-07-23T15:34:59.267Z,2.00
2023-07-23T15:37:27.142Z,1.80
2023-07-23T15:39:55.068Z,2.00
2023-07-23T15:42:23.750Z,1.63
2023-07-23T15:44:51.675Z,2.17
2023-07-23T15:47:21.182Z,2.17
2023-07-23T15:49:49.087Z,1.83
2023-07-23T15:52:16.960Z,2.13
2023-07-23T15:54:44.873Z,2.10
2023-07-23T15:57:12.810Z,2.23
2023-07-23T15:59:40.679Z,2.47
2023-07-23T16:02:08.628Z,2.20
2023-07-23T16:04:39.725Z,2.90
2023-07-23T16:07:07.988Z,2.17
2023-07-23T16:09:35.918Z,3.53
2023-07-23T16:12:05.940Z,2.10
2023-07-23T16:14:33.866Z,2.10
2023-07-23T16:17:01.734Z,2.40
2023-07-23T16:19:29.657Z,2.80
2023-07-23T16:21:58.961Z,2.70
2023-07-23T16:24:26.927Z,2.23
2023-07-23T16:26:55.400Z,2.00
2023-07-23T16:29:23.816Z,2.50
2023-07-23T16:31:52.369Z,2.30
2023-07-23T16:34:20.970Z,2.60
2023-07-23T16:36:50.484Z,2.33
2023-07-23T16:39:20.698Z,2.60
2023-07-23T16:41:48.869Z,3.00
2023-07-23T16:44:17.071Z,3.03
2023-07-23T16:46:45.181Z,2.60
2023-07-23T16:49:13.128Z,1.80
2023-07-23T16:51:41.086Z,1.80
2023-07-23T16:54:08.977Z,2.23
2023-07-23T16:56:38.348Z,2.30
2023-07-23T16:59:06.248Z,1.90
2023-07-23T17:01:34.324Z,2.00
2023-07-23T17:04:02.255Z,2.07
2023-07-23T17:06:30.323Z,2.17
2023-07-23T17:08:58.392Z,1.77
2023-07-23T17:11:26.645Z,2.50
2023-07-23T17:13:56.206Z,2.20
2023-07-23T17:16:24.204Z,1.97
2023-07-23T17:18:52.133Z,2.20
2023-07-23T17:21:20.245Z,2.10
2023-07-23T17:23:48.192Z,2.00
2023-07-23T17:26:16.099Z,2.27
2023-07-23T17:28:47.063Z,2.40
2023-07-23T17:31:16.380Z,2.10
2023-07-23T17:33:44.352Z,2.33
2023-07-23T17:36:12.285Z,2.53
2023-07-23T17:38:40.151Z,2.10
2023-07-23T17:41:08.069Z,2.60
2023-07-23T17:43:35.980Z,2.00
2023-07-23T17:46:04.048Z,2.37
2023-07-23T17:48:33.410Z,2.50
2023-07-23T17:51:01.302Z,2.37
2023-07-23T17:53:29.343Z,2.30
2023-07-23T17:55:57.313Z,2.60
2023-07-23T17:58:26.876Z,2.60
2023-07-23T18:00:55.915Z,2.50
2023-07-23T18:03:23.909Z,2.20
2023-07-23T18:05:53.637Z,2.40
2023-07-23T18:08:21.560Z,2.73
2023-07-23T18:10:49.698Z,2.80
2023-07-23T18:13:17.651Z,2.50
2023-07-23T18:15:46.027Z,3.20
2023-07-23T18:18:14.013Z,3.97
2023-07-23T18:20:42.175Z,5.67
2023-07-23T18:23:11.423Z,7.13
2023-07-23T18:25:50.633Z,4.33
2023-07-23T18:28:26.910Z,3.93
2023-07-23T18:30:59.809Z,3.30
2023-07-23T18:33:27.824Z,2.90
2023-07-23T18:35:58.866Z,3.07
2023-07-23T18:38:28.130Z,3.00
2023-07-23T18:40:56.357Z,2.63
2023-07-23T18:43:24.976Z,2.40
2023-07-23T18:45:53.430Z,2.60
2023-07-23T18:48:21.384Z,2.33
2023-07-23T18:50:49.859Z,2.50
2023-07-23T18:53:17.777Z,2.17
2023-07-23T18:55:47.021Z,2.80
2023-07-23T18:58:14.916Z,2.70
2023-07-23T19:00:45.274Z,2.43
2023-07-23T19:03:14.145Z,2.40
2023-07-23T19:05:44.037Z,2.00
2023-07-23T19:08:12.023Z,2.37
2023-07-23T19:10:39.920Z,2.17
2023-07-23T19:13:09.199Z,2.73
2023-07-23T19:15:37.134Z,2.60
2023-07-23T19:18:05.237Z,2.40
2023-07-23T19:20:33.264Z,2.10
2023-07-23T19:23:03.401Z,2.40
2023-07-23T19:25:32.428Z,2.00
2023-07-23T19:28:00.345Z,2.20
2023-07-23T19:30:29.741Z,2.13
2023-07-23T19:32:57.880Z,2.40
2023-07-23T19:35:25.846Z,2.60
2023-07-23T19:37:53.791Z,2.63
2023-07-23T19:40:22.027Z,2.60
2023-07-23T19:42:49.934Z,2.43
2023-07-23T19:45:18.033Z,2.70
2023-07-23T19:47:47.288Z,3.30
2023-07-23T19:50:15.280Z,2.43
2023-07-23T19:52:43.450Z,2.87
2023-07-23T19:55:12.154Z,2.80
2023-07-23T19:57:40.019Z,2.50
2023-07-23T20:00:09.046Z,2.60
2023-07-23T20:02:37.046Z,2.90
2023-07-23T20:05:08.742Z,2.70
2023-07-23T20:07:36.947Z,2.73
2023-07-23T20:10:05.646Z,2.40
2023-07-23T20:12:33.594Z,2.53
2023-07-23T20:15:01.462Z,5.17
2023-07-23T20:17:29.457Z,9.57
2023-07-23T20:19:57.465Z,3.80
2023-07-23T20:22:26.822Z,2.93
2023-07-23T20:24:54.835Z,2.77
2023-07-23T20:27:22.750Z,2.60
2023-07-23T20:29:51.159Z,2.50
2023-07-23T20:32:19.538Z,3.10
2023-07-23T20:34:48.086Z,2.77
2023-07-23T20:37:16.581Z,2.60
2023-07-23T20:39:46.547Z,9.00
2023-07-23T20:42:15.597Z,3.80
2023-07-23T20:44:44.097Z,4.50
2023-07-23T20:47:12.132Z,3.50
2023-07-23T20:49:40.096Z,2.43
2023-07-23T20:52:08.183Z,2.63
2023-07-23T20:54:36.159Z,2.77
2023-07-23T20:57:06.068Z,2.70
2023-07-23T20:59:34.210Z,2.73
2023-07-23T21:02:02.078Z,2.80
2023-07-23T21:04:30.004Z,2.70
2023-07-23T21:06:57.970Z,2.53
2023-07-23T21:09:25.982Z,2.93
2023-07-23T21:11:53.878Z,2.57
2023-07-23T21:14:23.488Z,2.87
2023-07-23T21:16:51.452Z,3.00
2023-07-23T21:19:19.397Z,2.77
2023-07-23T21:21:47.376Z,2.57
2023-07-23T21:24:15.301Z,2.73
2023-07-23T21:26:44.281Z,3.00
2023-07-23T21:29:12.336Z,2.90
2023-07-23T21:31:41.589Z,2.33
2023-07-23T21:34:09.899Z,2.90
2023-07-23T21:36:37.827Z,2.90
2023-07-23T21:39:05.691Z,2.90
2023-07-23T21:41:33.547Z,6.13
2023-07-23T21:44:01.510Z,3.40
2023-07-23T21:46:29.675Z,2.60
2023-07-23T21:48:59.170Z,3.90
2023-07-23T21:51:27.133Z,2.20
2023-07-23T21:53:55.053Z,3.00
2023-07-23T21:56:22.921Z,2.90
2023-07-23T21:58:50.814Z,3.13
2023-07-23T22:01:18.742Z,3.10
2023-07-23T22:03:47.321Z,3.13
2023-07-23T22:06:16.658Z,3.00
2023-07-23T22:08:44.698Z,2.70
2023-07-23T22:11:12.585Z,2.90
2023-07-23T22:13:40.511Z,2.60
2023-07-23T22:16:08.429Z,4.00
2023-07-23T22:18:36.344Z,5.00
2023-07-23T22:21:04.294Z,3.30
2023-07-23T22:23:33.599Z,3.23
2023-07-23T22:26:01.582Z,2.90
2023-07-23T22:28:29.479Z,2.90
2023-07-23T22:30:58.166Z,2.57
2023-07-23T22:33:26.027Z,2.83
2023-07-23T22:35:54.606Z,2.73
2023-07-23T22:38:22.495Z,2.97
2023-07-23T22:40:51.853Z,2.83
2023-07-23T22:43:19.754Z,3.30
2023-07-23T22:45:47.761Z,3.30
2023-07-23T22:48:17.084Z,3.00
2023-07-23T22:50:45.670Z,3.80
2023-07-23T22:53:13.601Z,3.53
2023-07-23T22:55:42.187Z,8.47
2023-07-23T22:58:11.468Z,4.87
2023-07-23T23:00:39.394Z,3.03
2023-07-23T23:03:07.320Z,3.10
2023-07-23T23:05:35.299Z,3.17
2023-07-23T23:08:03.172Z,3.53
2023-07-23T23:10:31.075Z,3.33
2023-07-23T23:12:58.960Z,3.50
2023-07-23T23:15:28.612Z,3.20
2023-07-23T23:17:56.514Z,3.30
2023-07-23T23:20:24.462Z,2.90
2023-07-23T23:22:52.801Z,3.10
2023-07-23T23:25:20.676Z,2.67
2023-07-23T23:27:48.539Z,4.10
2023-07-23T23:30:16.622Z,3.40
2023-07-23T23:32:45.921Z,3.60
2023-07-23T23:35:13.851Z,3.30
2023-07-23T23:37:41.755Z,3.20
2023-07-23T23:40:10.166Z,3.00
2023-07-23T23:42:38.137Z,3.30
2023-07-23T23:45:06.855Z,3.13
2023-07-23T23:47:34.735Z,3.03
2023-07-23T23:50:04.069Z,3.63
2023-07-23T23:52:32.149Z,2.90
2023-07-23T23:55:00.437Z,3.20
2023-07-23T23:57:28.322Z,3.50
2023-07-23T23:59:56.175Z,3.40
